sensor_id;sensor_type;location;lat;lon;timestamp;P1;durP1;ratioP1;P2;durP2;ratioP2
10641;SDS011;5369;49.586;8.646;2023-08-06T00:00:23;3.23;;;2.90;;
10641;SDS011;5369;49.586;8.646;2023-08-06T00:02:49;4.10;;;3.30;;
10641;SDS011;5369;49.586;8.646;2023-08-06T00:05:15;3.33;;;3.03;;
10641;SDS011;5369;49.586;8.646;2023-08-06T00:07:43;4.03;;;3.00;;
10641;SDS011;5369;49.586;8.646;2023-08-06T00:10:10;3.40;;;3.10;;
10641;SDS011;5369;49.586;8.646;2023-08-06T00:12:36;4.87;;;3.57;;
10641;SDS011;5369;49.586;8.646;2023-08-06T00:15:03;3.40;;;3.10;;
10641;SDS011;5369;49.586;8.646;2023-08-06T00:17:29;3.50;;;3.20;;
10641;SDS011;5369;49.586;8.646;2023-08-06T00:19:55;3.70;;;3.20;;
10641;SDS011;5369;49.586;8.646;2023-08-06T00:22:21;5.03;;;3.03;;
10641;SDS011;5369;49.586;8.646;2023-08-06T00:24:48;3.63;;;3.07;;
10641;SDS011;5369;49.586;8.646;2023-08-06T00:27:14;3.20;;;2.90;;
10641;SDS011;5369;49.586;8.646;2023-08-06T00:29:40;3.10;;;2.80;;
10641;SDS011;5369;49.586;8.646;2023-08-06T00:32:06;4.80;;;3.00;;
10641;SDS011;5369;49.586;8.646;2023-08-06T00:34:32;3.93;;;3.20;;
10641;SDS011;5369;49.586;8.646;2023-08-06T00:36:58;3.67;;;3.10;;
10641;SDS011;5369;49.586;8.646;2023-08-06T00:39:25;3.50;;;3.10;;
10641;SDS011;5369;49.586;8.646;2023-08-06T00:41:52;4.40;;;3.10;;
10641;SDS011;5369;49.586;8.646;2023-08-06T00:44:18;4.13;;;3.10;;
10641;SDS011;5369;49.586;8.646;2023-08-06T00:46:44;3.90;;;2.90;;
10641;SDS011;5369;49.586;8.646;2023-08-06T00:49:10;4.43;;;2.40;;
10641;SDS011;5369;49.586;8.646;2023-08-06T00:51:36;3.27;;;2.70;;
10641;SDS011;5369;49.586;8.646;2023-08-06T00:54:03;3.70;;;2.90;;
10641;SDS011;5369;49.586;8.646;2023-08-06T00:56:29;2.93;;;2.73;;
10641;SDS011;5369;49.586;8.646;2023-08-06T00:58:55;3.27;;;2.80;;
10641;SDS011;5369;49.586;8.646;2023-08-06T01:01:21;4.17;;;2.67;;
10641;SDS011;5369;49.586;8.646;2023-08-06T01:03:48;4.23;;;2.70;;
10641;SDS011;5369;49.586;8.646;2023-08-06T01:06:15;2.50;;;2.30;;
10641;SDS011;5369;49.586;8.646;2023-08-06T01:08:51;3.63;;;2.40;;
10641;SDS011;5369;49.586;8.646;2023-08-06T01:11:25;3.73;;;2.80;;
10641;SDS011;5369;49.586;8.646;2023-08-06T01:13:59;3.77;;;2.60;;
10641;SDS011;5369;49.586;8.646;2023-08-06T01:16:28;3.17;;;2.70;;
10641;SDS011;5369;49.586;8.646;2023-08-06T01:18:55;3.27;;;2.43;;
10641;SDS011;5369;49.586;8.646;2023-08-06T01:21:24;3.10;;;2.30;;
10641;SDS011;5369;49.586;8.646;2023-08-06T01:23:50;2.70;;;2.50;;
10641;SDS011;5369;49.586;8.646;2023-08-06T01:26:27;3.00;;;2.70;;
10641;SDS011;5369;49.586;8.646;2023-08-06T01:28:59;3.47;;;2.60;;
10641;SDS011;5369;49.586;8.646;2023-08-06T01:31:27;3.47;;;2.50;;
10641;SDS011;5369;49.586;8.646;2023-08-06T01:33:56;2.90;;;2.60;;
10641;SDS011;5369;49.586;8.646;2023-08-06T01:36:24;2.97;;;2.40;;
10641;SDS011;5369;49.586;8.646;2023-08-06T01:38:51;4.43;;;2.70;;
10641;SDS011;5369;49.586;8.646;2023-08-06T01:41:18;3.40;;;2.70;;
10641;SDS011;5369;49.586;8.646;2023-08-06T01:43:44;2.97;;;2.53;;
10641;SDS011;5369;49.586;8.646;2023-08-06T01:46:10;3.70;;;2.70;;
10641;SDS011;5369;49.586;8.646;2023-08-06T01:48:36;3.73;;;2.33;;
10641;SDS011;5369;49.586;8.646;2023-08-06T01:51:05;3.10;;;2.40;;
10641;SDS011;5369;49.586;8.646;2023-08-06T01:53:31;2.33;;;2.13;;
10641;SDS011;5369;49.586;8.646;2023-08-06T01:55:58;3.17;;;2.30;;
10641;SDS011;5369;49.586;8.646;2023-08-06T01:58:24;3.43;;;2.70;;
10641;SDS011;5369;49.586;8.646;2023-08-06T02:00:50;3.23;;;2.70;;
10641;SDS011;5369;49.586;8.646;2023-08-06T02:03:16;3.30;;;2.53;;
10641;SDS011;5369;49.586;8.646;2023-08-06T02:05:46;2.57;;;2.37;;
10641;SDS011;5369;49.586;8.646;2023-08-06T02:08:13;3.73;;;2.60;;
10641;SDS011;5369;49.586;8.646;2023-08-06T02:10:39;2.53;;;2.33;;
10641;SDS011;5369;49.586;8.646;2023-08-06T02:13:06;3.03;;;2.50;;
10641;SDS011;5369;49.586;8.646;2023-08-06T02:15:32;4.07;;;2.57;;
10641;SDS011;5369;49.586;8.646;2023-08-06T02:17:58;2.87;;;2.50;;
10641;SDS011;5369;49.586;8.646;2023-08-06T02:20:25;3.17;;;2.70;;
10641;SDS011;5369;49.586;8.646;2023-08-06T02:22:51;3.33;;;2.30;;
10641;SDS011;5369;49.586;8.646;2023-08-06T02:25:17;2.47;;;2.27;;
10641;SDS011;5369;49.586;8.646;2023-08-06T02:27:43;4.37;;;2.50;;
10641;SDS011;5369;49.586;8.646;2023-08-06T02:30:10;3.00;;;2.50;;
10641;SDS011;5369;49.586;8.646;2023-08-06T02:32:38;2.50;;;2.30;;
10641;SDS011;5369;49.586;8.646;2023-08-06T02:35:04;2.57;;;2.37;;
10641;SDS011;5369;49.586;8.646;2023-08-06T02:37:32;4.17;;;2.70;;
10641;SDS011;5369;49.586;8.646;2023-08-06T02:39:59;3.67;;;3.00;;
10641;SDS011;5369;49.586;8.646;2023-08-06T02:42:25;3.57;;;2.47;;
10641;SDS011;5369;49.586;8.646;2023-08-06T02:44:52;3.00;;;2.70;;
10641;SDS011;5369;49.586;8.646;2023-08-06T02:47:22;2.70;;;2.50;;
10641;SDS011;5369;49.586;8.646;2023-08-06T02:49:49;3.00;;;2.67;;
10641;SDS011;5369;49.586;8.646;2023-08-06T02:52:15;3.17;;;2.83;;
10641;SDS011;5369;49.586;8.646;2023-08-06T02:54:42;3.47;;;2.50;;
10641;SDS011;5369;49.586;8.646;2023-08-06T02:57:09;3.83;;;2.50;;
10641;SDS011;5369;49.586;8.646;2023-08-06T02:59:35;5.13;;;3.00;;
10641;SDS011;5369;49.586;8.646;2023-08-06T03:02:06;2.83;;;2.50;;
10641;SDS011;5369;49.586;8.646;2023-08-06T03:04:50;4.33;;;2.60;;
10641;SDS011;5369;49.586;8.646;2023-08-06T03:07:19;3.10;;;2.50;;
10641;SDS011;5369;49.586;8.646;2023-08-06T03:09:52;3.67;;;2.40;;
10641;SDS011;5369;49.586;8.646;2023-08-06T03:12:19;3.20;;;2.90;;
10641;SDS011;5369;49.586;8.646;2023-08-06T03:14:46;2.57;;;2.37;;
10641;SDS011;5369;49.586;8.646;2023-08-06T03:17:14;2.47;;;2.27;;
10641;SDS011;5369;49.586;8.646;2023-08-06T03:19:41;3.07;;;2.40;;
10641;SDS011;5369;49.586;8.646;2023-08-06T03:22:09;3.90;;;2.70;;
10641;SDS011;5369;49.586;8.646;2023-08-06T03:24:36;3.20;;;2.67;;
10641;SDS011;5369;49.586;8.646;2023-08-06T03:27:03;3.23;;;2.37;;
10641;SDS011;5369;49.586;8.646;2023-08-06T03:29:30;3.17;;;2.40;;
10641;SDS011;5369;49.586;8.646;2023-08-06T03:31:59;3.23;;;2.60;;
10641;SDS011;5369;49.586;8.646;2023-08-06T03:34:26;4.03;;;2.80;;
10641;SDS011;5369;49.586;8.646;2023-08-06T03:36:52;2.80;;;2.50;;
10641;SDS011;5369;49.586;8.646;2023-08-06T03:39:18;3.07;;;2.43;;
10641;SDS011;5369;49.586;8.646;2023-08-06T03:41:45;3.93;;;2.30;;
10641;SDS011;5369;49.586;8.646;2023-08-06T03:44:11;2.33;;;2.13;;
10641;SDS011;5369;49.586;8.646;2023-08-06T03:46:37;3.17;;;2.30;;
10641;SDS011;5369;49.586;8.646;2023-08-06T03:49:05;4.57;;;2.40;;
10641;SDS011;5369;49.586;8.646;2023-08-06T03:51:31;5.77;;;2.83;;
10641;SDS011;5369;49.586;8.646;2023-08-06T03:53:58;2.63;;;2.10;;
10641;SDS011;5369;49.586;8.646;2023-08-06T03:56:24;5.80;;;2.47;;
10641;SDS011;5369;49.586;8.646;2023-08-06T03:58:50;4.80;;;2.33;;
10641;SDS011;5369;49.586;8.646;2023-08-06T04:01:17;4.30;;;2.00;;
10641;SDS011;5369;49.586;8.646;2023-08-06T04:03:44;4.03;;;2.10;;
10641;SDS011;5369;49.586;8.646;2023-08-06T04:06:11;5.77;;;2.20;;
10641;SDS011;5369;49.586;8.646;2023-08-06T04:08:37;4.13;;;2.30;;
10641;SDS011;5369;49.586;8.646;2023-08-06T04:11:03;4.43;;;2.30;;
10641;SDS011;5369;49.586;8.646;2023-08-06T04:13:29;2.97;;;2.00;;
10641;SDS011;5369;49.586;8.646;2023-08-06T04:16:01;4.97;;;2.13;;
10641;SDS011;5369;49.586;8.646;2023-08-06T04:18:27;4.13;;;1.90;;
10641;SDS011;5369;49.586;8.646;2023-08-06T04:20:54;3.57;;;2.13;;
10641;SDS011;5369;49.586;8.646;2023-08-06T04:23:22;4.33;;;2.10;;
10641;SDS011;5369;49.586;8.646;2023-08-06T04:25:49;3.40;;;2.20;;
10641;SDS011;5369;49.586;8.646;2023-08-06T04:28:15;6.40;;;2.20;;
10641;SDS011;5369;49.586;8.646;2023-08-06T04:30:41;3.53;;;2.20;;
10641;SDS011;5369;49.586;8.646;2023-08-06T04:33:08;4.13;;;2.50;;
10641;SDS011;5369;49.586;8.646;2023-08-06T04:35:34;4.27;;;2.20;;
10641;SDS011;5369;49.586;8.646;2023-08-06T04:38:01;7.67;;;2.47;;
10641;SDS011;5369;49.586;8.646;2023-08-06T04:40:27;2.40;;;2.20;;
10641;SDS011;5369;49.586;8.646;2023-08-06T04:42:53;3.80;;;2.73;;
10641;SDS011;5369;49.586;8.646;2023-08-06T04:45:20;5.83;;;2.43;;
10641;SDS011;5369;49.586;8.646;2023-08-06T04:47:46;3.60;;;2.20;;
10641;SDS011;5369;49.586;8.646;2023-08-06T04:50:12;2.97;;;2.40;;
10641;SDS011;5369;49.586;8.646;2023-08-06T04:52:38;2.80;;;2.47;;
10641;SDS011;5369;49.586;8.646;2023-08-06T04:55:04;3.97;;;2.67;;
10641;SDS011;5369;49.586;8.646;2023-08-06T04:57:31;5.03;;;2.50;;
10641;SDS011;5369;49.586;8.646;2023-08-06T04:59:57;5.67;;;2.37;;
10641;SDS011;5369;49.586;8.646;2023-08-06T05:02:23;3.60;;;2.23;;
10641;SDS011;5369;49.586;8.646;2023-08-06T05:04:49;3.77;;;2.10;;
10641;SDS011;5369;49.586;8.646;2023-08-06T05:07:15;3.00;;;2.17;;
10641;SDS011;5369;49.586;8.646;2023-08-06T05:09:42;4.27;;;2.20;;
10641;SDS011;5369;49.586;8.646;2023-08-06T05:12:08;4.80;;;1.90;;
10641;SDS011;5369;49.586;8.646;2023-08-06T05:14:34;3.50;;;2.10;;
10641;SDS011;5369;49.586;8.646;2023-08-06T05:17:01;2.83;;;2.03;;
10641;SDS011;5369;49.586;8.646;2023-08-06T05:19:29;3.23;;;1.80;;
10641;SDS011;5369;49.586;8.646;2023-08-06T05:21:55;3.33;;;1.80;;
10641;SDS011;5369;49.586;8.646;2023-08-06T05:24:21;4.70;;;1.90;;
10641;SDS011;5369;49.586;8.646;2023-08-06T05:26:47;4.53;;;1.87;;
10641;SDS011;5369;49.586;8.646;2023-08-06T05:29:16;3.83;;;1.70;;
10641;SDS011;5369;49.586;8.646;2023-08-06T05:31:42;3.53;;;1.70;;
10641;SDS011;5369;49.586;8.646;2023-08-06T05:34:08;4.73;;;1.80;;
10641;SDS011;5369;49.586;8.646;2023-08-06T05:36:34;4.13;;;1.60;;
10641;SDS011;5369;49.586;8.646;2023-08-06T05:39:00;2.83;;;1.10;;
10641;SDS011;5369;49.586;8.646;2023-08-06T05:41:26;3.17;;;1.40;;
10641;SDS011;5369;49.586;8.646;2023-08-06T05:43:53;4.93;;;1.30;;
10641;SDS011;5369;49.586;8.646;2023-08-06T05:46:19;3.97;;;1.43;;
10641;SDS011;5369;49.586;8.646;2023-08-06T05:48:45;3.83;;;1.37;;
10641;SDS011;5369;49.586;8.646;2023-08-06T05:51:11;3.43;;;1.40;;
10641;SDS011;5369;49.586;8.646;2023-08-06T05:53:38;3.67;;;1.50;;
10641;SDS011;5369;49.586;8.646;2023-08-06T05:56:04;2.20;;;1.40;;
10641;SDS011;5369;49.586;8.646;2023-08-06T05:58:30;2.70;;;1.50;;
10641;SDS011;5369;49.586;8.646;2023-08-06T06:00:56;3.20;;;1.30;;
10641;SDS011;5369;49.586;8.646;2023-08-06T06:03:23;5.60;;;1.63;;
10641;SDS011;5369;49.586;8.646;2023-08-06T06:05:49;6.90;;;1.70;;
10641;SDS011;5369;49.586;8.646;2023-08-06T06:08:15;2.97;;;1.40;;
10641;SDS011;5369;49.586;8.646;2023-08-06T06:10:41;3.63;;;1.50;;
10641;SDS011;5369;49.586;8.646;2023-08-06T06:13:07;2.97;;;1.60;;
10641;SDS011;5369;49.586;8.646;2023-08-06T06:15:33;3.03;;;1.60;;
10641;SDS011;5369;49.586;8.646;2023-08-06T06:17:59;4.87;;;1.57;;
10641;SDS011;5369;49.586;8.646;2023-08-06T06:20:25;5.43;;;1.37;;
10641;SDS011;5369;49.586;8.646;2023-08-06T06:22:51;3.83;;;1.50;;
10641;SDS011;5369;49.586;8.646;2023-08-06T06:25:18;4.10;;;1.50;;
10641;SDS011;5369;49.586;8.646;2023-08-06T06:27:44;2.70;;;1.47;;
10641;SDS011;5369;49.586;8.646;2023-08-06T06:30:10;2.73;;;1.30;;
10641;SDS011;5369;49.586;8.646;2023-08-06T06:32:37;3.03;;;1.23;;
10641;SDS011;5369;49.586;8.646;2023-08-06T06:35:05;2.23;;;1.23;;
10641;SDS011;5369;49.586;8.646;2023-08-06T06:37:31;5.40;;;1.50;;
10641;SDS011;5369;49.586;8.646;2023-08-06T06:39:57;2.10;;;1.20;;
10641;SDS011;5369;49.586;8.646;2023-08-06T06:42:23;4.03;;;1.40;;
10641;SDS011;5369;49.586;8.646;2023-08-06T06:44:51;4.90;;;1.70;;
10641;SDS011;5369;49.586;8.646;2023-08-06T06:47:17;4.07;;;1.40;;
10641;SDS011;5369;49.586;8.646;2023-08-06T06:49:43;4.97;;;1.60;;
10641;SDS011;5369;49.586;8.646;2023-08-06T06:52:09;4.63;;;1.30;;
10641;SDS011;5369;49.586;8.646;2023-08-06T06:54:36;3.03;;;1.20;;
10641;SDS011;5369;49.586;8.646;2023-08-06T06:57:03;3.07;;;1.30;;
10641;SDS011;5369;49.586;8.646;2023-08-06T06:59:29;2.87;;;1.20;;
10641;SDS011;5369;49.586;8.646;2023-08-06T07:01:55;5.40;;;1.13;;
10641;SDS011;5369;49.586;8.646;2023-08-06T07:04:21;3.47;;;1.30;;
10641;SDS011;5369;49.586;8.646;2023-08-06T07:06:48;3.37;;;1.30;;
10641;SDS011;5369;49.586;8.646;2023-08-06T07:09:14;5.10;;;1.47;;
10641;SDS011;5369;49.586;8.646;2023-08-06T07:11:40;5.17;;;1.33;;
10641;SDS011;5369;49.586;8.646;2023-08-06T07:14:08;2.67;;;1.13;;
10641;SDS011;5369;49.586;8.646;2023-08-06T07:16:35;1.87;;;1.00;;
10641;SDS011;5369;49.586;8.646;2023-08-06T07:19:01;3.17;;;1.20;;
10641;SDS011;5369;49.586;8.646;2023-08-06T07:21:27;2.83;;;1.20;;
10641;SDS011;5369;49.586;8.646;2023-08-06T07:23:53;5.23;;;1.23;;
10641;SDS011;5369;49.586;8.646;2023-08-06T07:26:19;2.47;;;1.00;;
10641;SDS011;5369;49.586;8.646;2023-08-06T07:28:45;1.27;;;0.83;;
10641;SDS011;5369;49.586;8.646;2023-08-06T07:31:11;2.50;;;0.90;;
10641;SDS011;5369;49.586;8.646;2023-08-06T07:33:38;1.67;;;0.90;;
10641;SDS011;5369;49.586;8.646;2023-08-06T07:36:07;2.07;;;0.90;;
10641;SDS011;5369;49.586;8.646;2023-08-06T07:38:34;1.87;;;0.90;;
10641;SDS011;5369;49.586;8.646;2023-08-06T07:41:01;2.57;;;0.90;;
10641;SDS011;5369;49.586;8.646;2023-08-06T07:43:27;2.40;;;0.90;;
10641;SDS011;5369;49.586;8.646;2023-08-06T07:45:53;1.60;;;1.00;;
10641;SDS011;5369;49.586;8.646;2023-08-06T07:48:19;2.87;;;1.07;;
10641;SDS011;5369;49.586;8.646;2023-08-06T07:50:46;3.47;;;0.90;;
10641;SDS011;5369;49.586;8.646;2023-08-06T07:53:15;3.20;;;1.07;;
10641;SDS011;5369;49.586;8.646;2023-08-06T07:55:41;3.57;;;0.90;;
10641;SDS011;5369;49.586;8.646;2023-08-06T07:58:07;2.13;;;0.90;;
10641;SDS011;5369;49.586;8.646;2023-08-06T08:00:34;1.87;;;1.10;;
10641;SDS011;5369;49.586;8.646;2023-08-06T08:03:00;2.93;;;1.30;;
10641;SDS011;5369;49.586;8.646;2023-08-06T08:05:26;2.43;;;0.80;;
10641;SDS011;5369;49.586;8.646;2023-08-06T08:07:52;1.13;;;0.87;;
10641;SDS011;5369;49.586;8.646;2023-08-06T08:10:18;2.23;;;0.90;;
10641;SDS011;5369;49.586;8.646;2023-08-06T08:12:44;1.40;;;0.80;;
10641;SDS011;5369;49.586;8.646;2023-08-06T08:15:12;1.37;;;0.80;;
10641;SDS011;5369;49.586;8.646;2023-08-06T08:17:38;1.53;;;0.70;;
10641;SDS011;5369;49.586;8.646;2023-08-06T08:20:05;0.90;;;0.80;;
10641;SDS011;5369;49.586;8.646;2023-08-06T08:22:31;1.07;;;0.93;;
10641;SDS011;5369;49.586;8.646;2023-08-06T08:24:57;2.10;;;0.80;;
10641;SDS011;5369;49.586;8.646;2023-08-06T08:27:23;1.63;;;1.00;;
10641;SDS011;5369;49.586;8.646;2023-08-06T08:29:50;1.30;;;0.80;;
10641;SDS011;5369;49.586;8.646;2023-08-06T08:32:16;1.43;;;0.90;;
10641;SDS011;5369;49.586;8.646;2023-08-06T08:34:42;1.13;;;0.83;;
10641;SDS011;5369;49.586;8.646;2023-08-06T08:37:09;1.27;;;0.90;;
10641;SDS011;5369;49.586;8.646;2023-08-06T08:39:35;1.80;;;1.03;;
10641;SDS011;5369;49.586;8.646;2023-08-06T08:42:01;1.00;;;0.80;;
10641;SDS011;5369;49.586;8.646;2023-08-06T08:44:28;1.03;;;0.70;;
10641;SDS011;5369;49.586;8.646;2023-08-06T08:46:57;2.33;;;1.10;;
10641;SDS011;5369;49.586;8.646;2023-08-06T08:49:23;1.00;;;0.90;;
10641;SDS011;5369;49.586;8.646;2023-08-06T08:51:50;1.33;;;0.80;;
10641;SDS011;5369;49.586;8.646;2023-08-06T08:54:16;3.27;;;0.80;;
10641;SDS011;5369;49.586;8.646;2023-08-06T08:56:43;1.80;;;0.93;;
10641;SDS011;5369;49.586;8.646;2023-08-06T08:59:10;3.07;;;0.90;;
10641;SDS011;5369;49.586;8.646;2023-08-06T09:01:36;1.90;;;1.07;;
10641;SDS011;5369;49.586;8.646;2023-08-06T09:04:04;1.27;;;1.00;;
10641;SDS011;5369;49.586;8.646;2023-08-06T09:06:32;0.60;;;0.60;;
10641;SDS011;5369;49.586;8.646;2023-08-06T09:09:06;0.63;;;0.63;;
10641;SDS011;5369;49.586;8.646;2023-08-06T09:11:45;0.57;;;0.57;;
10641;SDS011;5369;49.586;8.646;2023-08-06T09:14:14;0.83;;;0.70;;
10641;SDS011;5369;49.586;8.646;2023-08-06T09:16:40;0.93;;;0.60;;
10641;SDS011;5369;49.586;8.646;2023-08-06T09:19:10;0.70;;;0.70;;
10641;SDS011;5369;49.586;8.646;2023-08-06T09:21:43;0.80;;;0.70;;
10641;SDS011;5369;49.586;8.646;2023-08-06T09:24:09;0.70;;;0.70;;
10641;SDS011;5369;49.586;8.646;2023-08-06T09:26:37;0.90;;;0.90;;
10641;SDS011;5369;49.586;8.646;2023-08-06T09:29:07;1.53;;;0.80;;
10641;SDS011;5369;49.586;8.646;2023-08-06T09:31:40;1.40;;;0.80;;
10641;SDS011;5369;49.586;8.646;2023-08-06T09:34:10;1.33;;;0.80;;
10641;SDS011;5369;49.586;8.646;2023-08-06T09:36:39;1.43;;;0.80;;
10641;SDS011;5369;49.586;8.646;2023-08-06T09:39:12;1.03;;;0.87;;
10641;SDS011;5369;49.586;8.646;2023-08-06T09:41:38;0.70;;;0.70;;
10641;SDS011;5369;49.586;8.646;2023-08-06T09:44:05;0.80;;;0.50;;
10641;SDS011;5369;49.586;8.646;2023-08-06T09:46:31;1.00;;;0.77;;
10641;SDS011;5369;49.586;8.646;2023-08-06T09:48:58;0.77;;;0.73;;
10641;SDS011;5369;49.586;8.646;2023-08-06T09:51:24;0.60;;;0.60;;
10641;SDS011;5369;49.586;8.646;2023-08-06T09:53:51;0.50;;;0.50;;
10641;SDS011;5369;49.586;8.646;2023-08-06T09:56:17;0.70;;;0.70;;
10641;SDS011;5369;49.586;8.646;2023-08-06T09:58:44;0.83;;;0.70;;
10641;SDS011;5369;49.586;8.646;2023-08-06T10:01:12;0.83;;;0.60;;
10641;SDS011;5369;49.586;8.646;2023-08-06T10:03:39;0.60;;;0.60;;
10641;SDS011;5369;49.586;8.646;2023-08-06T10:06:06;0.50;;;0.50;;
10641;SDS011;5369;49.586;8.646;2023-08-06T10:08:34;0.60;;;0.57;;
10641;SDS011;5369;49.586;8.646;2023-08-06T10:11:00;0.63;;;0.63;;
10641;SDS011;5369;49.586;8.646;2023-08-06T10:13:29;0.70;;;0.70;;
10641;SDS011;5369;49.586;8.646;2023-08-06T10:15:56;1.03;;;0.50;;
10641;SDS011;5369;49.586;8.646;2023-08-06T10:18:22;0.60;;;0.60;;
10641;SDS011;5369;49.586;8.646;2023-08-06T10:20:48;1.07;;;0.70;;
10641;SDS011;5369;49.586;8.646;2023-08-06T10:23:14;1.73;;;0.50;;
10641;SDS011;5369;49.586;8.646;2023-08-06T10:25:42;1.13;;;0.67;;
10641;SDS011;5369;49.586;8.646;2023-08-06T10:28:09;0.67;;;0.67;;
10641;SDS011;5369;49.586;8.646;2023-08-06T10:30:45;0.70;;;0.60;;
10641;SDS011;5369;49.586;8.646;2023-08-06T10:33:11;0.57;;;0.57;;
10641;SDS011;5369;49.586;8.646;2023-08-06T10:35:41;0.70;;;0.40;;
10641;SDS011;5369;49.586;8.646;2023-08-06T10:38:15;2.00;;;0.40;;
10641;SDS011;5369;49.586;8.646;2023-08-06T10:40:48;0.30;;;0.30;;
10641;SDS011;5369;49.586;8.646;2023-08-06T10:43:28;0.40;;;0.40;;
10641;SDS011;5369;49.586;8.646;2023-08-06T10:45:55;0.37;;;0.30;;
10641;SDS011;5369;49.586;8.646;2023-08-06T10:48:34;1.07;;;0.40;;
10641;SDS011;5369;49.586;8.646;2023-08-06T10:51:07;1.90;;;0.50;;
10641;SDS011;5369;49.586;8.646;2023-08-06T10:53:33;0.43;;;0.43;;
10641;SDS011;5369;49.586;8.646;2023-08-06T10:56:00;0.60;;;0.40;;
10641;SDS011;5369;49.586;8.646;2023-08-06T10:58:30;0.60;;;0.60;;
10641;SDS011;5369;49.586;8.646;2023-08-06T11:00:56;0.80;;;0.50;;
10641;SDS011;5369;49.586;8.646;2023-08-06T11:03:23;0.40;;;0.40;;
10641;SDS011;5369;49.586;8.646;2023-08-06T11:05:49;0.40;;;0.40;;
10641;SDS011;5369;49.586;8.646;2023-08-06T11:08:25;0.50;;;0.50;;
10641;SDS011;5369;49.586;8.646;2023-08-06T11:10:51;0.57;;;0.57;;
10641;SDS011;5369;49.586;8.646;2023-08-06T11:13:17;0.67;;;0.67;;
10641;SDS011;5369;49.586;8.646;2023-08-06T11:15:45;0.60;;;0.60;;
10641;SDS011;5369;49.586;8.646;2023-08-06T11:18:11;0.60;;;0.60;;
10641;SDS011;5369;49.586;8.646;2023-08-06T11:20:37;0.60;;;0.60;;
10641;SDS011;5369;49.586;8.646;2023-08-06T11:23:04;0.93;;;0.50;;
10641;SDS011;5369;49.586;8.646;2023-08-06T11:25:30;0.67;;;0.63;;
10641;SDS011;5369;49.586;8.646;2023-08-06T11:27:56;0.50;;;0.50;;
10641;SDS011;5369;49.586;8.646;2023-08-06T11:30:23;0.60;;;0.60;;
10641;SDS011;5369;49.586;8.646;2023-08-06T11:32:49;0.93;;;0.60;;
10641;SDS011;5369;49.586;8.646;2023-08-06T11:35:15;0.50;;;0.50;;
10641;SDS011;5369;49.586;8.646;2023-08-06T11:37:45;0.50;;;0.50;;
10641;SDS011;5369;49.586;8.646;2023-08-06T11:40:11;0.60;;;0.60;;
10641;SDS011;5369;49.586;8.646;2023-08-06T11:42:37;0.97;;;0.60;;
10641;SDS011;5369;49.586;8.646;2023-08-06T11:45:04;2.43;;;0.70;;
10641;SDS011;5369;49.586;8.646;2023-08-06T11:47:30;0.60;;;0.60;;
10641;SDS011;5369;49.586;8.646;2023-08-06T11:49:57;0.60;;;0.60;;
10641;SDS011;5369;49.586;8.646;2023-08-06T11:52:23;0.60;;;0.60;;
10641;SDS011;5369;49.586;8.646;2023-08-06T11:55:06;0.60;;;0.60;;
10641;SDS011;5369;49.586;8.646;2023-08-06T11:57:33;0.60;;;0.60;;
10641;SDS011;5369;49.586;8.646;2023-08-06T12:00:05;0.60;;;0.60;;
10641;SDS011;5369;49.586;8.646;2023-08-06T12:02:41;0.87;;;0.70;;
10641;SDS011;5369;49.586;8.646;2023-08-06T12:07:36;0.70;;;0.70;;
10641;SDS011;5369;49.586;8.646;2023-08-06T12:10:03;0.70;;;0.70;;
10641;SDS011;5369;49.586;8.646;2023-08-06T12:12:29;1.20;;;0.63;;
10641;SDS011;5369;49.586;8.646;2023-08-06T12:14:55;1.17;;;0.67;;
10641;SDS011;5369;49.586;8.646;2023-08-06T12:17:22;0.80;;;0.80;;
10641;SDS011;5369;49.586;8.646;2023-08-06T12:19:48;0.70;;;0.70;;
10641;SDS011;5369;49.586;8.646;2023-08-06T12:22:14;0.90;;;0.80;;
10641;SDS011;5369;49.586;8.646;2023-08-06T12:24:41;0.70;;;0.70;;
10641;SDS011;5369;49.586;8.646;2023-08-06T12:27:08;1.37;;;0.80;;
10641;SDS011;5369;49.586;8.646;2023-08-06T12:29:34;2.17;;;0.80;;
10641;SDS011;5369;49.586;8.646;2023-08-06T12:32:00;3.93;;;0.80;;
10641;SDS011;5369;49.586;8.646;2023-08-06T12:34:27;2.10;;;0.90;;
10641;SDS011;5369;49.586;8.646;2023-08-06T12:36:53;1.20;;;0.80;;
10641;SDS011;5369;49.586;8.646;2023-08-06T12:39:19;0.70;;;0.70;;
10641;SDS011;5369;49.586;8.646;2023-08-06T12:41:45;0.80;;;0.80;;
10641;SDS011;5369;49.586;8.646;2023-08-06T12:44:12;1.03;;;0.70;;
10641;SDS011;5369;49.586;8.646;2023-08-06T12:46:38;2.10;;;0.80;;
10641;SDS011;5369;49.586;8.646;2023-08-06T12:49:04;1.67;;;0.87;;
10641;SDS011;5369;49.586;8.646;2023-08-06T12:51:30;1.33;;;0.90;;
10641;SDS011;5369;49.586;8.646;2023-08-06T12:53:59;0.90;;;0.70;;
10641;SDS011;5369;49.586;8.646;2023-08-06T12:56:25;1.10;;;0.90;;
10641;SDS011;5369;49.586;8.646;2023-08-06T12:58:51;2.43;;;0.80;;
10641;SDS011;5369;49.586;8.646;2023-08-06T13:01:17;1.07;;;0.80;;
10641;SDS011;5369;49.586;8.646;2023-08-06T13:03:43;0.87;;;0.77;;
10641;SDS011;5369;49.586;8.646;2023-08-06T13:06:09;2.27;;;1.03;;
10641;SDS011;5369;49.586;8.646;2023-08-06T13:08:36;1.03;;;0.80;;
10641;SDS011;5369;49.586;8.646;2023-08-06T13:11:03;1.97;;;0.90;;
10641;SDS011;5369;49.586;8.646;2023-08-06T13:13:29;1.40;;;1.00;;
10641;SDS011;5369;49.586;8.646;2023-08-06T13:15:55;4.60;;;1.20;;
10641;SDS011;5369;49.586;8.646;2023-08-06T13:18:21;2.80;;;1.00;;
10641;SDS011;5369;49.586;8.646;2023-08-06T13:20:47;2.93;;;0.97;;
10641;SDS011;5369;49.586;8.646;2023-08-06T13:23:17;1.17;;;0.83;;
10641;SDS011;5369;49.586;8.646;2023-08-06T13:25:43;2.23;;;0.80;;
10641;SDS011;5369;49.586;8.646;2023-08-06T13:28:10;1.43;;;0.90;;
10641;SDS011;5369;49.586;8.646;2023-08-06T13:30:36;1.20;;;0.80;;
10641;SDS011;5369;49.586;8.646;2023-08-06T13:33:10;2.20;;;0.90;;
10641;SDS011;5369;49.586;8.646;2023-08-06T13:35:36;1.37;;;0.80;;
10641;SDS011;5369;49.586;8.646;2023-08-06T13:38:03;1.73;;;0.80;;
10641;SDS011;5369;49.586;8.646;2023-08-06T13:40:29;1.20;;;0.80;;
10641;SDS011;5369;49.586;8.646;2023-08-06T13:42:55;1.30;;;0.80;;
10641;SDS011;5369;49.586;8.646;2023-08-06T13:45:22;2.70;;;0.83;;
10641;SDS011;5369;49.586;8.646;2023-08-06T13:47:48;1.70;;;0.70;;
10641;SDS011;5369;49.586;8.646;2023-08-06T13:50:14;1.90;;;0.70;;
10641;SDS011;5369;49.586;8.646;2023-08-06T13:52:41;1.17;;;0.80;;
10641;SDS011;5369;49.586;8.646;2023-08-06T13:55:07;0.60;;;0.60;;
10641;SDS011;5369;49.586;8.646;2023-08-06T13:57:36;0.67;;;0.60;;
10641;SDS011;5369;49.586;8.646;2023-08-06T14:00:02;0.83;;;0.60;;
10641;SDS011;5369;49.586;8.646;2023-08-06T14:02:37;1.23;;;0.77;;
10641;SDS011;5369;49.586;8.646;2023-08-06T14:05:04;1.30;;;0.80;;
10641;SDS011;5369;49.586;8.646;2023-08-06T14:07:30;0.70;;;0.70;;
10641;SDS011;5369;49.586;8.646;2023-08-06T14:09:56;1.07;;;0.80;;
10641;SDS011;5369;49.586;8.646;2023-08-06T14:12:23;1.47;;;0.83;;
10641;SDS011;5369;49.586;8.646;2023-08-06T14:14:49;2.10;;;0.80;;
10641;SDS011;5369;49.586;8.646;2023-08-06T14:17:15;0.73;;;0.70;;
10641;SDS011;5369;49.586;8.646;2023-08-06T14:19:42;0.80;;;0.60;;
10641;SDS011;5369;49.586;8.646;2023-08-06T14:22:08;1.03;;;0.87;;
10641;SDS011;5369;49.586;8.646;2023-08-06T14:24:34;1.17;;;0.80;;
10641;SDS011;5369;49.586;8.646;2023-08-06T14:27:00;1.27;;;1.10;;
10641;SDS011;5369;49.586;8.646;2023-08-06T14:29:26;2.20;;;0.90;;
10641;SDS011;5369;49.586;8.646;2023-08-06T14:31:52;1.83;;;0.87;;
10641;SDS011;5369;49.586;8.646;2023-08-06T14:34:18;1.67;;;0.70;;
10641;SDS011;5369;49.586;8.646;2023-08-06T14:36:44;0.90;;;0.60;;
10641;SDS011;5369;49.586;8.646;2023-08-06T14:39:10;2.70;;;0.83;;
10641;SDS011;5369;49.586;8.646;2023-08-06T14:41:36;0.80;;;0.80;;
10641;SDS011;5369;49.586;8.646;2023-08-06T14:44:03;1.63;;;0.63;;
10641;SDS011;5369;49.586;8.646;2023-08-06T14:46:29;0.90;;;0.90;;
10641;SDS011;5369;49.586;8.646;2023-08-06T14:48:55;1.70;;;1.20;;
10641;SDS011;5369;49.586;8.646;2023-08-06T14:51:21;1.17;;;0.90;;
10641;SDS011;5369;49.586;8.646;2023-08-06T14:53:48;1.60;;;0.80;;
10641;SDS011;5369;49.586;8.646;2023-08-06T14:56:14;0.90;;;0.63;;
10641;SDS011;5369;49.586;8.646;2023-08-06T14:58:40;1.53;;;0.80;;
10641;SDS011;5369;49.586;8.646;2023-08-06T15:01:07;0.70;;;0.70;;